createdAt,value
2022-08-30T00:00:18.954Z,-23931.31
2022-08-30T00:03:07.828Z,-23922.56
2022-08-30T00:05:56.210Z,-23923.03
2022-08-30T00:08:44.881Z,-23925.47
2022-08-30T00:11:31.862Z,-23924.50
2022-08-30T00:14:20.458Z,-23912.38
2022-08-30T00:17:07.498Z,-23916.97
2022-08-30T00:19:56.067Z,-23920.13
2022-08-30T00:22:43.057Z,-23920.13
2022-08-30T00:25:30.126Z,-23921.59
2022-08-30T00:28:17.519Z,-23909.44
2022-08-30T00:31:05.643Z,-23912.59
2022-08-30T00:33:52.661Z,-23912.84
2022-08-30T00:36:39.695Z,-23914.53
2022-08-30T00:39:29.948Z,-23914.31
2022-08-30T00:42:18.593Z,-23911.63
2022-08-30T00:45:20.199Z,-23912.38
2022-08-30T00:48:07.849Z,-23915.28
2022-08-30T00:51:00.495Z,-23916.97
2022-08-30T00:53:50.878Z,-23900.47
2022-08-30T00:56:38.226Z,-23900.22
2022-08-30T00:59:26.388Z,-23912.59
2022-08-30T01:02:14.410Z,-23911.38
2022-08-30T01:05:04.527Z,-23912.38
2022-08-30T01:07:51.836Z,-23906.53
2022-08-30T01:10:39.221Z,-23913.09
2022-08-30T01:13:28.279Z,-23921.09
2022-08-30T01:16:15.765Z,-23907.25
2022-08-30T01:19:03.707Z,-23908.97
2022-08-30T01:21:57.450Z,-23903.38
2022-08-30T01:24:47.958Z,-23901.44
2022-08-30T01:27:38.569Z,-23895.34
2022-08-30T01:30:25.591Z,-23902.66
2022-08-30T01:33:13.156Z,-23896.09
2022-08-30T01:36:03.840Z,-23901.19
2022-08-30T01:38:56.983Z,-23909.19
2022-08-30T01:41:44.542Z,-23914.31
2022-08-30T01:44:31.572Z,-23918.19
2022-08-30T01:47:19.433Z,-23907.00
2022-08-30T01:50:08.226Z,-23904.59
2022-08-30T01:52:55.309Z,-23899.25
2022-08-30T01:55:42.839Z,-23893.66
2022-08-30T01:58:30.075Z,-23899.50
2022-08-30T02:01:19.896Z,-23904.09
2022-08-30T02:04:09.137Z,-23908.97
2022-08-30T02:06:56.186Z,-23911.88
2022-08-30T02:09:43.308Z,-23912.13
2022-08-30T02:12:33.229Z,-23908.00
2022-08-30T02:15:20.469Z,-23892.94
2022-08-30T02:18:07.384Z,-23898.03
2022-08-30T02:20:54.494Z,-23899.75
2022-08-30T02:23:42.405Z,-23908.97
2022-08-30T02:26:29.768Z,-23907.25
2022-08-30T02:29:17.028Z,-23899.75
2022-08-30T02:32:04.509Z,-23884.19
2022-08-30T02:34:51.755Z,-23881.78
2022-08-30T02:37:39.377Z,-23883.22
2022-08-30T02:40:26.387Z,-23886.13
2022-08-30T02:43:13.468Z,-23890.25
2022-08-30T02:46:00.449Z,-23891.97
2022-08-30T02:48:47.543Z,-23892.44
2022-08-30T02:51:35.241Z,-23893.44
2022-08-30T02:54:22.235Z,-23891.72
2022-08-30T02:57:19.878Z,-23898.28
2022-08-30T03:00:14.087Z,-23902.66
2022-08-30T03:03:03.739Z,-23898.75
2022-08-30T03:05:50.895Z,-23887.84
2022-08-30T03:08:38.176Z,-23892.44
2022-08-30T03:11:25.508Z,-23898.50
2022-08-30T03:14:12.550Z,-23899.00
2022-08-30T03:16:59.614Z,-23887.84
2022-08-30T03:19:46.740Z,-23891.97
2022-08-30T03:22:34.006Z,-23881.28
2022-08-30T03:25:21.859Z,-23885.41
2022-08-30T03:28:09.389Z,-23883.22
2022-08-30T03:30:56.746Z,-23894.63
2022-08-30T03:33:43.742Z,-23896.34
2022-08-30T03:36:30.898Z,-23895.84
2022-08-30T03:39:18.019Z,-23896.34
2022-08-30T03:42:05.230Z,-23896.56
2022-08-30T03:44:52.265Z,-23898.28
2022-08-30T03:47:39.505Z,-23901.66
2022-08-30T03:50:30.651Z,-23894.38
2022-08-30T03:53:17.719Z,-23891.47
2022-08-30T03:56:05.039Z,-23894.63
2022-08-30T03:58:52.052Z,-23890.03
2022-08-30T04:01:39.775Z,-23895.13
2022-08-30T04:04:27.109Z,-23896.34
2022-08-30T04:07:14.535Z,-23899.25
2022-08-30T04:10:01.496Z,-23905.06
2022-08-30T04:12:49.983Z,-23906.53
2022-08-30T04:15:36.981Z,-23899.50
2022-08-30T04:18:24.030Z,-23902.16
2022-08-30T04:21:13.940Z,-23904.59
2022-08-30T04:24:01.398Z,-23900.22
2022-08-30T04:26:48.363Z,-23899.25
2022-08-30T04:29:35.454Z,-23894.38
2022-08-30T04:32:22.551Z,-23887.59
2022-08-30T04:35:10.788Z,-23900.94
2022-08-30T04:37:57.697Z,-23900.94
2022-08-30T04:40:48.648Z,-23896.81
2022-08-30T04:43:35.605Z,-23899.97
2022-08-30T04:46:22.705Z,-23891.00
2022-08-30T04:49:09.671Z,-23884.69
2022-08-30T04:51:56.706Z,-23886.38
2022-08-30T04:54:43.642Z,-23888.81
2022-08-30T04:57:30.825Z,-23890.25
2022-08-30T05:00:20.577Z,-23890.03
2022-08-30T05:03:07.788Z,-23882.72
2022-08-30T05:05:54.771Z,-23886.38
2022-08-30T05:08:45.977Z,-23888.56
2022-08-30T05:11:33.595Z,-23882.72
2022-08-30T05:14:20.670Z,-23878.13
2022-08-30T05:17:07.585Z,-23877.16
2022-08-30T05:19:54.616Z,-23863.06
2022-08-30T05:22:53.486Z,-23857.00
2022-08-30T05:25:42.519Z,-23856.75
2022-08-30T05:28:29.417Z,-23859.44
2022-08-30T05:31:20.345Z,-23861.13
2022-08-30T05:34:07.267Z,-23860.88
2022-08-30T05:36:54.369Z,-23870.59
2022-08-30T05:39:50.761Z,-23871.31
2022-08-30T05:42:41.569Z,-23869.38
2022-08-30T05:45:28.594Z,-23869.38
2022-08-30T05:48:15.780Z,-23877.88
2022-08-30T05:51:17.111Z,-23875.22
2022-08-30T05:54:06.257Z,-23882.25
2022-08-30T05:56:53.166Z,-23887.59
2022-08-30T05:59:40.187Z,-23874.97
2022-08-30T06:02:27.217Z,-23878.84
2022-08-30T06:05:14.722Z,-23875.94
2022-08-30T06:08:01.666Z,-23885.41
2022-08-30T06:10:48.891Z,-23882.72
2022-08-30T06:13:35.841Z,-23882.25
2022-08-30T06:16:25.677Z,-23883.22
2022-08-30T06:19:14.957Z,-23893.91
2022-08-30T06:22:02.044Z,-23886.88
2022-08-30T06:24:57.797Z,-23882.72
2022-08-30T06:27:45.263Z,-23875.69
2022-08-30T06:30:33.720Z,-23878.84
2022-08-30T06:33:20.777Z,-23888.56
2022-08-30T06:36:11.188Z,-23894.63
2022-08-30T06:38:59.035Z,-23886.13
2022-08-30T06:41:45.960Z,-23892.94
2022-08-30T06:44:33.227Z,-23895.34
2022-08-30T06:47:20.492Z,-23900.94
2022-08-30T06:50:11.734Z,-23899.50
2022-08-30T06:53:05.653Z,-23898.28
2022-08-30T06:56:01.191Z,-23897.31
2022-08-30T06:58:48.183Z,-23908.97
2022-08-30T07:01:35.290Z,-23922.81
2022-08-30T07:04:22.304Z,-23916.97
2022-08-30T07:07:11.032Z,-23911.38
2022-08-30T07:09:57.950Z,-23928.38
2022-08-30T07:12:45.136Z,-23927.16
2022-08-30T07:15:38.111Z,-23935.19
2022-08-30T07:18:44.365Z,-23934.22
2022-08-30T07:21:37.416Z,-23926.19
2022-08-30T07:24:25.138Z,-23929.84
2022-08-30T07:27:12.621Z,-23942.94
2022-08-30T07:30:01.279Z,-23942.72
2022-08-30T07:32:48.365Z,-23941.50
2022-08-30T07:35:35.640Z,-23942.94
2022-08-30T07:38:22.565Z,-23939.56
2022-08-30T07:41:09.762Z,-23933.25
2022-08-30T07:43:57.503Z,-23940.28
2022-08-30T07:46:44.640Z,-23933.97
2022-08-30T07:49:31.585Z,-23927.91
2022-08-30T07:52:18.666Z,-23939.31
2022-08-30T07:55:06.452Z,-23927.16
2022-08-30T07:57:53.628Z,-23924.75
2022-08-30T08:00:40.910Z,-23931.78
2022-08-30T08:03:30.026Z,-23933.25
2022-08-30T08:06:18.579Z,-23937.59
2022-08-30T08:09:06.035Z,-23933.47
2022-08-30T08:11:53.033Z,-23929.84
2022-08-30T08:14:41.535Z,-23928.88
2022-08-30T08:17:28.580Z,-23931.53
2022-08-30T08:20:16.252Z,-23923.03
2022-08-30T08:23:03.997Z,-23908.47
2022-08-30T08:25:50.983Z,-23920.63
2022-08-30T08:28:38.019Z,-23920.84
2022-08-30T08:31:33.311Z,-23921.59
2022-08-30T08:34:23.453Z,-23930.56
2022-08-30T08:37:10.476Z,-23939.78
2022-08-30T08:39:57.782Z,-23947.56
2022-08-30T08:43:00.808Z,-23939.31
2022-08-30T08:46:24.810Z,-23921.34
2022-08-30T08:49:11.914Z,-23932.03
2022-08-30T08:52:17.733Z,-23930.81
2022-08-30T08:55:12.591Z,-23941.25
2022-08-30T08:57:59.615Z,-23913.31
2022-08-30T09:00:46.679Z,-23926.44
2022-08-30T09:03:33.661Z,-23929.84
2022-08-30T09:06:34.091Z,-23936.63
2022-08-30T09:09:27.785Z,-23942.72
2022-08-30T09:12:15.027Z,-23946.34
2022-08-30T09:15:19.072Z,-23953.41
2022-08-30T09:18:19.007Z,-23954.63
2022-08-30T09:21:08.295Z,-23961.88
2022-08-30T09:23:59.234Z,-23956.56
2022-08-30T09:26:46.191Z,-23946.34
2022-08-30T09:29:33.233Z,-23937.59
2022-08-30T09:32:26.473Z,-23941.00
2022-08-30T09:35:19.355Z,-23942.94
2022-08-30T09:38:09.336Z,-23933.00
2022-08-30T09:40:59.199Z,-23928.63
2022-08-30T09:44:08.121Z,-23926.94
2022-08-30T09:47:01.549Z,-23922.81
2022-08-30T09:49:49.206Z,-23933.00
2022-08-30T09:53:02.150Z,-23926.94
2022-08-30T09:55:52.292Z,-23922.06
2022-08-30T09:58:48.913Z,-23920.38
2022-08-30T10:01:47.832Z,-23908.47
2022-08-30T10:04:47.260Z,-23915.75
2022-08-30T10:07:53.591Z,-23912.13
2022-08-30T10:10:49.144Z,-23917.22
2022-08-30T10:13:51.543Z,-23918.69
2022-08-30T10:17:01.877Z,-23920.63
2022-08-30T10:20:03.307Z,-23920.13
2022-08-30T10:22:52.580Z,-23926.94
2022-08-30T10:25:44.114Z,-23927.41
2022-08-30T10:28:52.379Z,-23929.34
2022-08-30T10:32:28.452Z,-23926.44
2022-08-30T10:35:19.676Z,-23924.00
2022-08-30T10:38:15.126Z,-23917.47
2022-08-30T10:41:24.570Z,-23914.31
2022-08-30T10:44:20.151Z,-23921.09
2022-08-30T10:47:45.040Z,-23914.06
2022-08-30T10:50:42.607Z,-23923.78
2022-08-30T10:53:34.679Z,-23924.97
2022-08-30T10:56:26.338Z,-23927.91
2022-08-30T10:59:17.278Z,-23921.09
2022-08-30T11:02:14.460Z,-23922.06
2022-08-30T11:05:20.545Z,-23922.06
2022-08-30T11:08:24.240Z,-23927.91
2022-08-30T11:11:48.771Z,-23928.38
2022-08-30T11:14:40.404Z,-23936.16
2022-08-30T11:17:40.720Z,-23941.00
2022-08-30T11:20:36.484Z,-23931.53
2022-08-30T11:23:34.022Z,-23942.72
2022-08-30T11:26:45.900Z,-23941.25
2022-08-30T11:29:39.982Z,-23950.72
2022-08-30T11:33:00.764Z,-23953.66
2022-08-30T11:35:55.187Z,-23958.97
2022-08-30T11:38:42.279Z,-23965.28
2022-08-30T11:41:34.195Z,-23971.59
2022-08-30T11:44:22.273Z,-23978.41
2022-08-30T11:47:52.755Z,-23986.66
2022-08-30T11:50:54.352Z,-23987.63
2022-08-30T11:53:51.141Z,-23986.66
2022-08-30T11:56:56.861Z,-23980.34
2022-08-30T11:59:52.425Z,-23994.69
2022-08-30T12:02:45.177Z,-24007.53
2022-08-30T12:05:48.034Z,-23999.31
2022-08-30T12:08:35.227Z,-23998.31
2022-08-30T12:11:23.247Z,-23999.31
2022-08-30T12:14:52.185Z,-24005.13
2022-08-30T12:18:03.640Z,-23996.63
2022-08-30T12:20:51.254Z,-24003.19
2022-08-30T12:23:47.041Z,-23997.09
2022-08-30T12:26:39.530Z,-24007.53
2022-08-30T12:29:31.087Z,-24006.09
2022-08-30T12:32:20.605Z,-24017.03
2022-08-30T12:35:08.109Z,-24023.34
2022-08-30T12:38:00.159Z,-24027.22
2022-08-30T12:40:58.243Z,-24043.00
2022-08-30T12:43:52.018Z,-24031.84
2022-08-30T12:46:39.335Z,-24037.66
2022-08-30T12:49:30.149Z,-24038.16
2022-08-30T12:52:26.409Z,-24034.03
2022-08-30T12:55:20.393Z,-24032.09
2022-08-30T12:58:10.596Z,-24051.28
2022-08-30T13:01:31.206Z,-24049.09
2022-08-30T13:04:23.193Z,-24049.81
2022-08-30T13:07:10.815Z,-24049.56
2022-08-30T13:10:13.655Z,-24066.34
2022-08-30T13:13:06.375Z,-24068.03
2022-08-30T13:15:53.775Z,-24087.22
2022-08-30T13:18:40.896Z,-24083.81
2022-08-30T13:21:31.344Z,-24087.72
2022-08-30T13:24:21.326Z,-24087.72
2022-08-30T13:27:12.098Z,-24081.88
2022-08-30T13:30:13.292Z,-24094.50
2022-08-30T13:33:02.241Z,-24086.72
2022-08-30T13:35:49.329Z,-24069.97
2022-08-30T13:38:36.743Z,-24067.31
2022-08-30T13:41:24.591Z,-24063.66
2022-08-30T13:44:13.072Z,-24047.13
2022-08-30T13:50:08.563Z,-24053.69
2022-08-30T13:52:56.810Z,-24065.84
2022-08-30T13:55:44.508Z,-24062.44
2022-08-30T13:58:32.079Z,-24061.47
2022-08-30T14:01:19.808Z,-24068.25
2022-08-30T14:04:15.995Z,-24079.44
2022-08-30T14:07:20.260Z,-24082.84
2022-08-30T14:13:15.468Z,-24083.34
2022-08-30T14:19:15.961Z,-24091.09
2022-08-30T14:22:03.188Z,-24110.53
2022-08-30T14:24:50.264Z,-24116.84
2022-08-30T14:27:37.320Z,-24122.69
2022-08-30T14:30:25.201Z,-24127.53
2022-08-30T14:33:13.417Z,-24132.16
2022-08-30T14:36:00.446Z,-24119.03
2022-08-30T14:38:48.578Z,-24102.03
2022-08-30T14:41:43.487Z,-24096.94
2022-08-30T14:44:45.745Z,-24073.63
2022-08-30T14:47:38.270Z,-24068.75
2022-08-30T14:50:25.270Z,-24071.66
2022-08-30T14:53:15.013Z,-24071.19
2022-08-30T14:56:08.306Z,-24067.56
2022-08-30T14:59:00.586Z,-24061.22
2022-08-30T15:01:47.791Z,-24058.56
2022-08-30T15:04:34.907Z,-24049.09
2022-08-30T15:07:21.886Z,-24047.38
2022-08-30T15:10:10.509Z,-24041.81
2022-08-30T15:12:58.064Z,-24037.19
2022-08-30T15:15:45.117Z,-23986.19
2022-08-30T15:18:32.143Z,-23881.28
2022-08-30T15:21:28.074Z,-23858.72
2022-08-30T15:24:18.678Z,-23856.28
2022-08-30T15:27:06.121Z,-23839.53
2022-08-30T15:29:53.318Z,-23819.38
2022-08-30T15:32:40.411Z,-23811.84
2022-08-30T15:35:30.253Z,-23789.28
2022-08-30T15:38:19.366Z,-23785.16
2022-08-30T15:41:10.912Z,-23785.88
2022-08-30T15:43:59.752Z,-23779.31
2022-08-30T15:46:46.832Z,-23782.25
2022-08-30T15:49:34.123Z,-23784.66
2022-08-30T15:52:21.177Z,-23776.41
2022-08-30T15:55:09.423Z,-23776.66
2022-08-30T15:57:56.642Z,-23778.59
2022-08-30T16:00:45.126Z,-23783.94
2022-08-30T16:03:33.750Z,-23795.09
2022-08-30T16:06:25.067Z,-23794.88
2022-08-30T16:09:12.206Z,-23802.16
2022-08-30T16:11:59.307Z,-23811.59
2022-08-30T16:14:46.301Z,-23816.69
2022-08-30T16:17:33.330Z,-23817.69
2022-08-30T16:20:20.422Z,-23818.16
2022-08-30T16:23:08.285Z,-23824.94
2022-08-30T16:25:55.257Z,-23837.56
2022-08-30T16:28:50.881Z,-23845.59
2022-08-30T16:31:37.978Z,-23847.53
2022-08-30T16:34:25.246Z,-23849.00
2022-08-30T16:37:12.963Z,-23853.38
2022-08-30T16:40:00.476Z,-23840.50
2022-08-30T16:42:48.385Z,-23835.63
2022-08-30T16:45:39.751Z,-23830.28
2022-08-30T16:48:27.187Z,-23826.66
2022-08-30T16:51:17.533Z,-23826.66
2022-08-30T16:54:07.695Z,-23819.13
2022-08-30T16:56:55.697Z,-23821.56
2022-08-30T16:59:44.475Z,-23825.19
2022-08-30T17:02:31.629Z,-23826.44
2022-08-30T17:05:18.925Z,-23839.28
2022-08-30T17:08:05.959Z,-23857.50
2022-08-30T17:10:52.985Z,-23857.72
2022-08-30T17:13:40.322Z,-23862.34
2022-08-30T17:16:28.087Z,-23872.53
2022-08-30T17:19:15.627Z,-23861.13
2022-08-30T17:22:14.076Z,-23885.16
2022-08-30T17:25:01.353Z,-23892.44
2022-08-30T17:27:48.476Z,-23892.44
2022-08-30T17:30:36.250Z,-23895.34
2022-08-30T17:33:24.417Z,-23904.59
2022-08-30T17:36:11.832Z,-23886.13
2022-08-30T17:38:58.837Z,-23889.53
2022-08-30T17:41:50.184Z,-23890.50
2022-08-30T17:44:38.120Z,-23896.81
2022-08-30T17:47:29.395Z,-23901.91
2022-08-30T17:50:23.170Z,-23900.22
2022-08-30T17:53:10.132Z,-23898.28
2022-08-30T17:55:57.178Z,-23884.69
2022-08-30T17:58:47.203Z,-23881.53
2022-08-30T18:01:34.800Z,-23863.06
2022-08-30T18:04:24.728Z,-23851.66
2022-08-30T18:07:13.376Z,-23839.75
2022-08-30T18:10:00.416Z,-23836.63
2022-08-30T18:12:48.184Z,-23824.47
2022-08-30T18:15:36.700Z,-23821.06
2022-08-30T18:18:25.544Z,-23815.25
2022-08-30T18:21:16.266Z,-23803.59
2022-08-30T18:24:04.870Z,-23805.53
2022-08-30T18:26:54.806Z,-23801.66
2022-08-30T18:29:42.114Z,-23801.91
2022-08-30T18:32:32.897Z,-23798.72
2022-08-30T18:35:23.229Z,-23798.50
2022-08-30T18:38:10.620Z,-23793.88
2022-08-30T18:41:00.166Z,-23789.75
2022-08-30T18:43:48.355Z,-23788.31
2022-08-30T18:46:35.407Z,-23790.97
2022-08-30T18:49:22.668Z,-23790.97
2022-08-30T18:52:11.226Z,-23783.69
2022-08-30T18:54:58.244Z,-23782.72
2022-08-30T18:57:45.888Z,-23786.59
2022-08-30T19:00:33.750Z,-23790.97
2022-08-30T19:03:21.688Z,-23790.25
2022-08-30T19:06:11.697Z,-23780.28
2022-08-30T19:08:58.714Z,-23785.16
2022-08-30T19:11:46.827Z,-23786.38
2022-08-30T19:14:33.869Z,-23782.50
2022-08-30T19:17:21.440Z,-23789.28
2022-08-30T19:20:10.043Z,-23796.06
2022-08-30T19:23:09.622Z,-23791.94
2022-08-30T19:25:57.279Z,-23793.41
2022-08-30T19:28:45.050Z,-23786.38
2022-08-30T19:31:32.819Z,-23787.59
2022-08-30T19:34:19.874Z,-23784.44
2022-08-30T19:37:09.206Z,-23789.75
2022-08-30T19:40:07.252Z,-23790.50
2022-08-30T19:42:54.849Z,-23795.59
2022-08-30T19:45:41.886Z,-23792.94
2022-08-30T19:48:32.689Z,-23784.66
2022-08-30T19:51:20.802Z,-23790.25
2022-08-30T19:54:08.887Z,-23771.06
2022-08-30T19:56:55.908Z,-23772.53
2022-08-30T19:59:42.962Z,-23771.06
2022-08-30T20:02:30.093Z,-23773.00
2022-08-30T20:05:17.210Z,-23773.00
2022-08-30T20:08:04.192Z,-23776.19
2022-08-30T20:10:51.797Z,-23777.63
2022-08-30T20:13:39.215Z,-23777.38
2022-08-30T20:16:33.037Z,-23774.22
2022-08-30T20:19:29.200Z,-23776.19
2022-08-30T20:22:16.566Z,-23774.22
2022-08-30T20:25:05.627Z,-23778.09
2022-08-30T20:27:59.442Z,-23772.53
2022-08-30T20:30:46.937Z,-23768.41
2022-08-30T20:33:37.589Z,-23769.63
2022-08-30T20:36:24.630Z,-23770.34
2022-08-30T20:39:14.459Z,-23769.38
2022-08-30T20:42:05.324Z,-23771.56
2022-08-30T20:44:53.151Z,-23774.97
2022-08-30T20:47:41.570Z,-23771.56
2022-08-30T20:50:28.621Z,-23781.28
2022-08-30T20:53:16.072Z,-23785.16
2022-08-30T20:56:03.608Z,-23781.75
2022-08-30T20:58:50.694Z,-23787.81
2022-08-30T21:01:38.956Z,-23787.81
2022-08-30T21:04:27.933Z,-23778.09
2022-08-30T21:07:15.132Z,-23777.38
2022-08-30T21:10:02.399Z,-23782.50
2022-08-30T21:12:49.721Z,-23787.09
2022-08-30T21:15:37.981Z,-23781.03
2022-08-30T21:18:29.697Z,-23778.84
2022-08-30T21:21:22.821Z,-23774.72
2022-08-30T21:24:10.476Z,-23778.84
2022-08-30T21:26:58.661Z,-23780.78
2022-08-30T21:29:45.742Z,-23778.34
2022-08-30T21:32:32.768Z,-23772.78
2022-08-30T21:35:38.348Z,-23768.66
2022-08-30T21:38:26.588Z,-23773.75
2022-08-30T21:41:13.666Z,-23772.28
2022-08-30T21:44:03.983Z,-23766.69
2022-08-30T21:46:52.527Z,-23757.72
2022-08-30T21:49:39.918Z,-23750.94
2022-08-30T21:52:26.903Z,-23752.88
2022-08-30T21:55:14.089Z,-23750.69
2022-08-30T21:58:01.303Z,-23748.25
2022-08-30T22:00:50.650Z,-23747.28
2022-08-30T22:03:37.951Z,-23752.63
2022-08-30T22:06:30.627Z,-23754.56
2022-08-30T22:09:21.408Z,-23755.31
2022-08-30T22:12:08.570Z,-23756.28
2022-08-30T22:14:55.513Z,-23754.31
2022-08-30T22:17:42.565Z,-23756.28
2022-08-30T22:20:30.539Z,-23760.41
2022-08-30T22:23:19.123Z,-23756.50
2022-08-30T22:26:09.131Z,-23759.91
2022-08-30T22:28:56.257Z,-23759.41
2022-08-30T22:31:43.550Z,-23765.75
2022-08-30T22:34:32.115Z,-23761.59
2022-08-30T22:37:19.169Z,-23744.63
2022-08-30T22:40:06.589Z,-23757.25
2022-08-30T22:42:53.607Z,-23759.91
2022-08-30T22:45:41.143Z,-23758.69
2022-08-30T22:48:28.127Z,-23748.25
2022-08-30T22:51:17.480Z,-23749.72
2022-08-30T22:54:06.356Z,-23741.97
2022-08-30T22:56:53.439Z,-23745.84
2022-08-30T22:59:40.833Z,-23743.41
2022-08-30T23:02:27.843Z,-23744.13
2022-08-30T23:05:16.531Z,-23745.34
2022-08-30T23:08:05.272Z,-23728.59
2022-08-30T23:10:52.669Z,-23728.84
2022-08-30T23:13:40.351Z,-23735.41
2022-08-30T23:16:27.315Z,-23743.88
2022-08-30T23:19:15.220Z,-23747.78
2022-08-30T23:22:02.140Z,-23751.19
2022-08-30T23:25:07.664Z,-23747.28
2022-08-30T23:28:21.989Z,-23744.38
2022-08-30T23:31:33.417Z,-23753.13
2022-08-30T23:34:39.019Z,-23747.78
2022-08-30T23:37:44.603Z,-23757.25
2022-08-30T23:40:52.474Z,-23759.66
2022-08-30T23:43:57.991Z,-23759.41
2022-08-30T23:47:03.631Z,-23755.53
2022-08-30T23:50:09.823Z,-23752.13
2022-08-30T23:53:15.318Z,-23754.56
2022-08-30T23:56:20.999Z,-23739.28
2022-08-30T23:59:26.418Z,-23744.63
